sensor_id;sensor_type;location;lat;lon;timestamp;pressure;altitude;pressure_sealevel;temperature;humidity
78667;BME280;67983;59.830;30.198;2023-04-03T00:01:04;102357.31;;;1.36;61.73
78667;BME280;67983;59.830;30.198;2023-04-03T00:03:32;102360.81;;;1.34;62.19
78667;BME280;67983;59.830;30.198;2023-04-03T00:06:05;102353.84;;;1.34;62.07
78667;BME280;67983;59.830;30.198;2023-04-03T00:08:34;102352.13;;;1.29;61.71
78667;BME280;67983;59.830;30.198;2023-04-03T00:11:02;102353.88;;;1.25;61.88
78667;BME280;67983;59.830;30.198;2023-04-03T00:13:29;102351.25;;;1.20;62.22
78667;BME280;67983;59.830;30.198;2023-04-03T00:15:59;102352.13;;;1.18;62.20
78667;BME280;67983;59.830;30.198;2023-04-03T00:18:26;102352.13;;;1.19;62.13
78667;BME280;67983;59.830;30.198;2023-04-03T00:20:53;102350.38;;;1.22;62.36
78667;BME280;67983;59.830;30.198;2023-04-03T00:23:22;102351.25;;;1.27;62.44
78667;BME280;67983;59.830;30.198;2023-04-03T00:25:49;102347.75;;;1.28;62.06
78667;BME280;67983;59.830;30.198;2023-04-03T00:28:16;102355.59;;;1.22;62.17
78667;BME280;67983;59.830;30.198;2023-04-03T00:30:49;102342.53;;;1.15;62.21
78667;BME280;67983;59.830;30.198;2023-04-03T00:33:18;102352.13;;;1.12;62.72
78667;BME280;67983;59.830;30.198;2023-04-03T00:35:47;102345.16;;;1.17;62.76
78667;BME280;67983;59.830;30.198;2023-04-03T00:38:14;102345.16;;;1.23;62.88
78667;BME280;67983;59.830;30.198;2023-04-03T00:40:46;102351.25;;;1.28;62.71
78667;BME280;67983;59.830;30.198;2023-04-03T00:43:16;102350.38;;;1.29;62.67
78667;BME280;67983;59.830;30.198;2023-04-03T00:45:47;102352.97;;;1.32;62.76
78667;BME280;67983;59.830;30.198;2023-04-03T00:48:18;102349.50;;;1.30;62.63
78667;BME280;67983;59.830;30.198;2023-04-03T00:50:46;102357.34;;;1.30;63.10
78667;BME280;67983;59.830;30.198;2023-04-03T00:53:16;102346.03;;;1.28;63.01
78667;BME280;67983;59.830;30.198;2023-04-03T00:55:45;102358.22;;;1.25;63.24
78667;BME280;67983;59.830;30.198;2023-04-03T00:58:15;102338.16;;;1.22;63.69
78667;BME280;67983;59.830;30.198;2023-04-03T01:00:46;102340.78;;;1.20;63.80
78667;BME280;67983;59.830;30.198;2023-04-03T01:03:16;102347.78;;;1.25;63.72
78667;BME280;67983;59.830;30.198;2023-04-03T01:05:42;102339.91;;;1.26;63.88
78667;BME280;67983;59.830;30.198;2023-04-03T01:08:10;102344.28;;;1.26;63.98
78667;BME280;67983;59.830;30.198;2023-04-03T01:10:36;102340.81;;;1.24;64.24
78667;BME280;67983;59.830;30.198;2023-04-03T01:13:18;102343.41;;;1.25;64.49
78667;BME280;67983;59.830;30.198;2023-04-03T01:15:48;102346.91;;;1.26;63.97
78667;BME280;67983;59.830;30.198;2023-04-03T01:18:15;102348.66;;;1.24;63.89
78667;BME280;67983;59.830;30.198;2023-04-03T01:21:10;102338.16;;;1.22;64.27
78667;BME280;67983;59.830;30.198;2023-04-03T01:24:14;102341.66;;;1.19;63.82
78667;BME280;67983;59.830;30.198;2023-04-03T01:26:44;102334.72;;;1.12;64.23
78667;BME280;67983;59.830;30.198;2023-04-03T01:29:15;102340.81;;;1.10;64.03
78667;BME280;67983;59.830;30.198;2023-04-03T01:31:49;102340.81;;;1.11;64.30
78667;BME280;67983;59.830;30.198;2023-04-03T01:34:16;102344.28;;;1.13;64.42
78667;BME280;67983;59.830;30.198;2023-04-03T01:36:43;102342.56;;;1.12;63.51
78667;BME280;67983;59.830;30.198;2023-04-03T01:39:11;102339.06;;;1.04;63.77
78667;BME280;67983;59.830;30.198;2023-04-03T01:41:40;102326.00;;;1.00;63.88
78667;BME280;67983;59.830;30.198;2023-04-03T01:44:16;102344.28;;;1.04;64.35
78667;BME280;67983;59.830;30.198;2023-04-03T01:46:44;102338.19;;;1.04;64.46
78667;BME280;67983;59.830;30.198;2023-04-03T01:49:13;102343.41;;;1.02;64.36
78667;BME280;67983;59.830;30.198;2023-04-03T01:51:40;102345.16;;;1.03;64.09
78667;BME280;67983;59.830;30.198;2023-04-03T01:54:07;102347.78;;;1.02;64.10
78667;BME280;67983;59.830;30.198;2023-04-03T01:56:39;102348.66;;;0.99;63.38
78667;BME280;67983;59.830;30.198;2023-04-03T01:59:09;102336.44;;;0.90;63.59
78667;BME280;67983;59.830;30.198;2023-04-03T02:01:36;102339.09;;;0.92;63.75
78667;BME280;67983;59.830;30.198;2023-04-03T02:04:03;102339.97;;;0.96;64.07
78667;BME280;67983;59.830;30.198;2023-04-03T02:06:36;102342.56;;;0.97;63.81
78667;BME280;67983;59.830;30.198;2023-04-03T02:09:03;102342.56;;;0.94;63.97
78667;BME280;67983;59.830;30.198;2023-04-03T02:11:30;102344.31;;;0.95;63.35
78667;BME280;67983;59.830;30.198;2023-04-03T02:13:58;102343.41;;;0.90;63.58
78667;BME280;67983;59.830;30.198;2023-04-03T02:16:25;102339.06;;;0.87;63.51
78667;BME280;67983;59.830;30.198;2023-04-03T02:18:52;102330.38;;;0.84;64.19
78667;BME280;67983;59.830;30.198;2023-04-03T02:21:20;102339.94;;;0.83;63.62
78667;BME280;67983;59.830;30.198;2023-04-03T02:23:48;102339.09;;;0.78;63.80
78667;BME280;67983;59.830;30.198;2023-04-03T02:26:16;102329.47;;;0.74;64.45
78667;BME280;67983;59.830;30.198;2023-04-03T02:28:45;102332.09;;;0.76;64.41
78667;BME280;67983;59.830;30.198;2023-04-03T02:31:12;102328.59;;;0.75;64.90
78667;BME280;67983;59.830;30.198;2023-04-03T02:33:41;102343.41;;;0.75;64.32
78667;BME280;67983;59.830;30.198;2023-04-03T02:36:11;102334.72;;;0.71;63.66
78667;BME280;67983;59.830;30.198;2023-04-03T02:38:42;102332.97;;;0.70;63.91
78667;BME280;67983;59.830;30.198;2023-04-03T02:41:12;102332.09;;;0.71;64.13
78667;BME280;67983;59.830;30.198;2023-04-03T02:43:45;102344.28;;;0.72;64.09
78667;BME280;67983;59.830;30.198;2023-04-03T02:46:12;102339.06;;;0.72;64.43
78667;BME280;67983;59.830;30.198;2023-04-03T02:48:40;102329.47;;;0.74;64.61
78667;BME280;67983;59.830;30.198;2023-04-03T02:51:07;102339.94;;;0.76;64.22
78667;BME280;67983;59.830;30.198;2023-04-03T02:53:34;102338.19;;;0.75;64.38
78667;BME280;67983;59.830;30.198;2023-04-03T02:56:08;102337.31;;;0.74;64.76
78667;BME280;67983;59.830;30.198;2023-04-03T02:58:38;102332.97;;;0.72;63.99
78667;BME280;67983;59.830;30.198;2023-04-03T03:01:32;102342.56;;;0.64;64.43
78667;BME280;67983;59.830;30.198;2023-04-03T03:04:01;102340.78;;;0.59;64.56
78667;BME280;67983;59.830;30.198;2023-04-03T03:06:28;102336.44;;;0.58;64.79
78667;BME280;67983;59.830;30.198;2023-04-03T03:08:55;102337.31;;;0.59;64.75
78667;BME280;67983;59.830;30.198;2023-04-03T03:11:24;102331.25;;;0.63;65.18
78667;BME280;67983;59.830;30.198;2023-04-03T03:13:53;102337.34;;;0.67;65.00
78667;BME280;67983;59.830;30.198;2023-04-03T03:16:20;102338.19;;;0.69;64.63
78667;BME280;67983;59.830;30.198;2023-04-03T03:18:47;102337.34;;;0.67;65.12
78667;BME280;67983;59.830;30.198;2023-04-03T03:21:14;102338.19;;;0.66;65.34
78667;BME280;67983;59.830;30.198;2023-04-03T03:23:41;102337.31;;;0.70;65.44
78667;BME280;67983;59.830;30.198;2023-04-03T03:26:10;102333.84;;;0.72;65.44
78667;BME280;67983;59.830;30.198;2023-04-03T03:28:38;102338.19;;;0.75;65.55
78667;BME280;67983;59.830;30.198;2023-04-03T03:31:08;102336.47;;;0.77;65.34
78667;BME280;67983;59.830;30.198;2023-04-03T03:33:38;102344.31;;;0.77;64.74
78667;BME280;67983;59.830;30.198;2023-04-03T03:36:06;102348.63;;;0.76;65.32
78667;BME280;67983;59.830;30.198;2023-04-03T03:38:36;102339.97;;;0.79;65.23
78667;BME280;67983;59.830;30.198;2023-04-03T03:41:04;102342.53;;;0.76;64.77
78667;BME280;67983;59.830;30.198;2023-04-03T03:43:33;102331.22;;;0.75;64.97
78667;BME280;67983;59.830;30.198;2023-04-03T03:46:00;102343.44;;;0.79;65.01
78667;BME280;67983;59.830;30.198;2023-04-03T03:48:30;102351.28;;;0.85;65.63
78667;BME280;67983;59.830;30.198;2023-04-03T03:50:57;102340.81;;;0.96;65.57
78667;BME280;67983;59.830;30.198;2023-04-03T03:53:28;102339.91;;;1.06;65.58
78667;BME280;67983;59.830;30.198;2023-04-03T03:56:06;102343.44;;;1.11;65.32
78667;BME280;67983;59.830;30.198;2023-04-03T03:58:35;102349.50;;;1.16;65.69
78667;BME280;67983;59.830;30.198;2023-04-03T04:01:03;102343.38;;;1.22;65.28
78667;BME280;67983;59.830;30.198;2023-04-03T04:03:33;102350.38;;;1.28;65.57
78667;BME280;67983;59.830;30.198;2023-04-03T04:06:01;102341.63;;;1.33;65.49
78667;BME280;67983;59.830;30.198;2023-04-03T04:08:30;102349.47;;;1.38;66.05
78667;BME280;67983;59.830;30.198;2023-04-03T04:10:57;102344.25;;;1.42;65.45
78667;BME280;67983;59.830;30.198;2023-04-03T04:13:27;102352.06;;;1.47;65.50
78667;BME280;67983;59.830;30.198;2023-04-03T04:15:55;102347.72;;;1.49;64.97
78667;BME280;67983;59.830;30.198;2023-04-03T04:18:22;102352.03;;;1.53;65.08
78667;BME280;67983;59.830;30.198;2023-04-03T04:20:53;102345.94;;;1.60;65.16
78667;BME280;67983;59.830;30.198;2023-04-03T04:23:21;102340.72;;;1.59;65.31
78667;BME280;67983;59.830;30.198;2023-04-03T04:25:49;102337.22;;;1.58;65.46
78667;BME280;67983;59.830;30.198;2023-04-03T04:28:17;102341.59;;;1.59;65.54
78667;BME280;67983;59.830;30.198;2023-04-03T04:30:46;102332.00;;;1.58;64.78
78667;BME280;67983;59.830;30.198;2023-04-03T04:33:15;102324.19;;;1.46;65.51
78667;BME280;67983;59.830;30.198;2023-04-03T04:35:47;102339.00;;;1.47;65.08
78667;BME280;67983;59.830;30.198;2023-04-03T04:38:16;102334.66;;;1.43;65.32
78667;BME280;67983;59.830;30.198;2023-04-03T04:40:43;102345.13;;;1.44;65.56
78667;BME280;67983;59.830;30.198;2023-04-03T04:43:10;102329.44;;;1.40;64.68
78667;BME280;67983;59.830;30.198;2023-04-03T04:45:40;102335.56;;;1.30;65.15
78667;BME280;67983;59.830;30.198;2023-04-03T04:48:08;102337.31;;;1.29;65.68
78667;BME280;67983;59.830;30.198;2023-04-03T04:50:41;102328.56;;;1.32;65.46
78667;BME280;67983;59.830;30.198;2023-04-03T04:53:12;102327.69;;;1.33;66.11
78667;BME280;67983;59.830;30.198;2023-04-03T04:55:40;102337.25;;;1.37;66.07
78667;BME280;67983;59.830;30.198;2023-04-03T04:58:09;102339.91;;;1.41;66.66
78667;BME280;67983;59.830;30.198;2023-04-03T05:00:36;102328.53;;;1.50;66.79
78667;BME280;67983;59.830;30.198;2023-04-03T05:03:03;102333.75;;;1.47;65.45
78667;BME280;67983;59.830;30.198;2023-04-03T05:05:30;102336.38;;;1.45;65.56
78667;BME280;67983;59.830;30.198;2023-04-03T05:07:58;102333.78;;;1.45;65.82
78667;BME280;67983;59.830;30.198;2023-04-03T05:10:25;102333.75;;;1.52;66.32
78667;BME280;67983;59.830;30.198;2023-04-03T05:12:54;102330.25;;;1.57;65.95
78667;BME280;67983;59.830;30.198;2023-04-03T05:15:22;102338.06;;;1.63;66.35
78667;BME280;67983;59.830;30.198;2023-04-03T05:17:51;102336.31;;;1.68;66.44
78667;BME280;67983;59.830;30.198;2023-04-03T05:20:18;102338.91;;;1.77;66.81
78667;BME280;67983;59.830;30.198;2023-04-03T05:22:46;102324.94;;;1.80;66.89
78667;BME280;67983;59.830;30.198;2023-04-03T05:25:13;102336.22;;;1.91;66.97
78667;BME280;67983;59.830;30.198;2023-04-03T05:27:43;102330.09;;;2.01;66.73
78667;BME280;67983;59.830;30.198;2023-04-03T05:30:15;102333.53;;;2.06;67.07
78667;BME280;67983;59.830;30.198;2023-04-03T05:32:45;102331.78;;;2.10;66.77
78667;BME280;67983;59.830;30.198;2023-04-03T05:35:17;102333.50;;;2.13;66.79
78667;BME280;67983;59.830;30.198;2023-04-03T05:37:46;102332.63;;;2.17;66.54
78667;BME280;67983;59.830;30.198;2023-04-03T05:40:16;102332.63;;;2.18;66.32
78667;BME280;67983;59.830;30.198;2023-04-03T05:42:47;102332.59;;;2.21;65.76
78667;BME280;67983;59.830;30.198;2023-04-03T05:45:17;102329.16;;;2.16;65.04
78667;BME280;67983;59.830;30.198;2023-04-03T05:47:45;102341.34;;;2.19;65.73
78667;BME280;67983;59.830;30.198;2023-04-03T05:50:13;102337.00;;;2.16;65.59
78667;BME280;67983;59.830;30.198;2023-04-03T05:53:08;102335.25;;;2.12;65.39
78667;BME280;67983;59.830;30.198;2023-04-03T05:55:40;102341.38;;;2.11;65.40
78667;BME280;67983;59.830;30.198;2023-04-03T05:58:07;102336.19;;;2.05;64.79
78667;BME280;67983;59.830;30.198;2023-04-03T06:00:36;102339.69;;;2.01;65.37
78667;BME280;67983;59.830;30.198;2023-04-03T06:03:04;102343.19;;;2.01;65.81
78667;BME280;67983;59.830;30.198;2023-04-03T06:05:32;102350.13;;;2.08;65.91
78667;BME280;67983;59.830;30.198;2023-04-03T06:08:02;102340.50;;;2.10;64.89
78667;BME280;67983;59.830;30.198;2023-04-03T06:10:30;102343.09;;;2.12;64.71
78667;BME280;67983;59.830;30.198;2023-04-03T06:12:57;102343.97;;;2.14;64.48
78667;BME280;67983;59.830;30.198;2023-04-03T06:15:24;102339.56;;;2.22;64.39
78667;BME280;67983;59.830;30.198;2023-04-03T06:17:52;102338.63;;;2.29;64.99
78667;BME280;67983;59.830;30.198;2023-04-03T06:20:19;102341.19;;;2.42;64.09
78667;BME280;67983;59.830;30.198;2023-04-03T06:22:51;102341.22;;;2.38;63.66
78667;BME280;67983;59.830;30.198;2023-04-03T06:25:19;102345.53;;;2.49;64.22
78667;BME280;67983;59.830;30.198;2023-04-03T06:27:46;102342.81;;;2.59;64.50
78667;BME280;67983;59.830;30.198;2023-04-03T06:30:14;102342.78;;;2.67;64.63
78667;BME280;67983;59.830;30.198;2023-04-03T06:32:41;102337.50;;;2.72;64.40
78667;BME280;67983;59.830;30.198;2023-04-03T06:35:10;102331.41;;;2.69;64.17
78667;BME280;67983;59.830;30.198;2023-04-03T06:37:38;102333.13;;;2.70;62.88
78667;BME280;67983;59.830;30.198;2023-04-03T06:40:06;102336.59;;;2.73;63.55
78667;BME280;67983;59.830;30.198;2023-04-03T06:42:34;102343.53;;;2.81;63.51
78667;BME280;67983;59.830;30.198;2023-04-03T06:45:10;102343.56;;;2.78;62.22
78667;BME280;67983;59.830;30.198;2023-04-03T06:47:38;102346.16;;;2.81;63.22
78667;BME280;67983;59.830;30.198;2023-04-03T06:50:05;102347.03;;;2.83;62.67
78667;BME280;67983;59.830;30.198;2023-04-03T06:52:37;102345.28;;;2.81;62.76
78667;BME280;67983;59.830;30.198;2023-04-03T06:55:05;102355.75;;;2.82;63.09
78667;BME280;67983;59.830;30.198;2023-04-03T06:57:33;102347.06;;;2.80;62.42
78667;BME280;67983;59.830;30.198;2023-04-03T07:00:01;102358.34;;;2.87;62.81
78667;BME280;67983;59.830;30.198;2023-04-03T07:02:33;102356.53;;;2.96;63.32
78667;BME280;67983;59.830;30.198;2023-04-03T07:05:00;102364.31;;;3.04;61.85
78667;BME280;67983;59.830;30.198;2023-04-03T07:07:28;102352.09;;;3.03;62.07
78667;BME280;67983;59.830;30.198;2023-04-03T07:09:56;102364.31;;;3.07;61.26
78667;BME280;67983;59.830;30.198;2023-04-03T07:12:23;102349.44;;;3.08;61.22
78667;BME280;67983;59.830;30.198;2023-04-03T07:14:51;102366.84;;;3.16;61.57
78667;BME280;67983;59.830;30.198;2023-04-03T07:17:19;102355.44;;;3.19;61.42
78667;BME280;67983;59.830;30.198;2023-04-03T07:19:46;102364.19;;;3.22;60.98
78667;BME280;67983;59.830;30.198;2023-04-03T07:22:23;102359.75;;;3.27;60.87
78667;BME280;67983;59.830;30.198;2023-04-03T07:24:50;102357.09;;;3.30;60.90
78667;BME280;67983;59.830;30.198;2023-04-03T07:27:19;102357.88;;;3.40;60.83
78667;BME280;67983;59.830;30.198;2023-04-03T07:29:46;102362.09;;;3.55;60.68
78667;BME280;67983;59.830;30.198;2023-04-03T07:32:18;102365.47;;;3.68;60.88
78667;BME280;67983;59.830;30.198;2023-04-03T07:34:45;102357.44;;;3.80;60.32
78667;BME280;67983;59.830;30.198;2023-04-03T07:37:13;102357.44;;;3.80;59.12
78667;BME280;67983;59.830;30.198;2023-04-03T07:39:43;102361.09;;;3.68;58.27
78667;BME280;67983;59.830;30.198;2023-04-03T07:42:10;102359.34;;;3.64;58.63
78667;BME280;67983;59.830;30.198;2023-04-03T07:44:39;102356.69;;;3.67;59.61
78667;BME280;67983;59.830;30.198;2023-04-03T07:47:07;102355.72;;;3.76;59.07
78667;BME280;67983;59.830;30.198;2023-04-03T07:49:34;102355.66;;;3.82;57.97
78667;BME280;67983;59.830;30.198;2023-04-03T07:52:03;102358.28;;;3.80;57.45
78667;BME280;67983;59.830;30.198;2023-04-03T07:54:31;102364.47;;;3.76;57.48
78667;BME280;67983;59.830;30.198;2023-04-03T07:57:23;102361.78;;;3.84;58.12
78667;BME280;67983;59.830;30.198;2023-04-03T07:59:54;102376.63;;;3.86;57.81
78667;BME280;67983;59.830;30.198;2023-04-03T08:02:21;102367.91;;;3.81;57.91
78667;BME280;67983;59.830;30.198;2023-04-03T08:04:48;102372.38;;;3.75;57.14
78667;BME280;67983;59.830;30.198;2023-04-03T08:07:15;102363.69;;;3.67;57.07
78667;BME280;67983;59.830;30.198;2023-04-03T08:09:41;102380.44;;;3.58;57.49
78667;BME280;67983;59.830;30.198;2023-04-03T08:12:11;102376.94;;;3.59;57.85
78667;BME280;67983;59.830;30.198;2023-04-03T08:14:39;102376.72;;;3.77;58.00
78667;BME280;67983;59.830;30.198;2023-04-03T08:17:09;102375.69;;;3.90;57.87
78667;BME280;67983;59.830;30.198;2023-04-03T08:19:37;102380.06;;;3.90;57.16
78667;BME280;67983;59.830;30.198;2023-04-03T08:22:04;102378.44;;;3.80;57.22
78667;BME280;67983;59.830;30.198;2023-04-03T08:24:32;102372.44;;;3.70;57.77
78667;BME280;67983;59.830;30.198;2023-04-03T08:27:01;102375.06;;;3.67;58.18
78667;BME280;67983;59.830;30.198;2023-04-03T08:29:28;102385.53;;;3.72;57.78
78667;BME280;67983;59.830;30.198;2023-04-03T08:31:56;102386.38;;;3.75;58.24
78667;BME280;67983;59.830;30.198;2023-04-03T08:34:27;102384.53;;;3.82;58.11
78667;BME280;67983;59.830;30.198;2023-04-03T08:36:54;102378.34;;;3.89;57.36
78667;BME280;67983;59.830;30.198;2023-04-03T08:39:28;102386.19;;;3.92;57.41
78667;BME280;67983;59.830;30.198;2023-04-03T08:41:59;102380.06;;;3.92;56.53
78667;BME280;67983;59.830;30.198;2023-04-03T08:44:38;102377.50;;;3.87;56.26
78667;BME280;67983;59.830;30.198;2023-04-03T08:47:18;102381.91;;;3.83;56.36
78667;BME280;67983;59.830;30.198;2023-04-03T08:49:57;102394.06;;;3.92;57.27
78667;BME280;67983;59.830;30.198;2023-04-03T08:52:34;102380.88;;;3.95;56.15
78667;BME280;67983;59.830;30.198;2023-04-03T08:55:05;102387.94;;;3.90;55.92
78667;BME280;67983;59.830;30.198;2023-04-03T08:57:36;102382.75;;;3.87;56.17
78667;BME280;67983;59.830;30.198;2023-04-03T09:00:09;102387.06;;;3.91;56.14
78667;BME280;67983;59.830;30.198;2023-04-03T09:03:04;102383.44;;;4.01;56.74
78667;BME280;67983;59.830;30.198;2023-04-03T09:05:40;102385.22;;;3.98;55.72
78667;BME280;67983;59.830;30.198;2023-04-03T09:08:40;102375.50;;;4.06;56.66
78667;BME280;67983;59.830;30.198;2023-04-03T09:11:23;102391.03;;;4.24;56.28
78667;BME280;67983;59.830;30.198;2023-04-03T09:13:58;102385.69;;;4.32;54.69
78667;BME280;67983;59.830;30.198;2023-04-03T09:16:36;102387.34;;;4.37;54.54
78667;BME280;67983;59.830;30.198;2023-04-03T09:19:15;102389.81;;;4.49;55.07
78667;BME280;67983;59.830;30.198;2023-04-03T09:21:48;102392.31;;;4.60;54.40
78667;BME280;67983;59.830;30.198;2023-04-03T09:24:18;102393.06;;;4.67;54.32
78667;BME280;67983;59.830;30.198;2023-04-03T09:26:54;102391.22;;;4.72;54.55
78667;BME280;67983;59.830;30.198;2023-04-03T09:29:26;102387.59;;;4.80;54.18
78667;BME280;67983;59.830;30.198;2023-04-03T09:31:56;102386.59;;;4.91;54.24
78667;BME280;67983;59.830;30.198;2023-04-03T09:34:32;102385.53;;;5.01;53.45
78667;BME280;67983;59.830;30.198;2023-04-03T09:37:04;102389.81;;;5.08;53.48
78667;BME280;67983;59.830;30.198;2023-04-03T09:39:48;102391.34;;;5.20;53.68
78667;BME280;67983;59.830;30.198;2023-04-03T09:42:20;102387.63;;;5.31;53.40
78667;BME280;67983;59.830;30.198;2023-04-03T09:44:53;102386.72;;;5.34;52.20
78667;BME280;67983;59.830;30.198;2023-04-03T09:47:25;102392.03;;;5.31;52.95
78667;BME280;67983;59.830;30.198;2023-04-03T09:50:17;102391.81;;;5.43;52.96
78667;BME280;67983;59.830;30.198;2023-04-03T09:52:50;102396.22;;;5.43;52.53
78667;BME280;67983;59.830;30.198;2023-04-03T09:55:21;102390.16;;;5.39;52.04
78667;BME280;67983;59.830;30.198;2023-04-03T09:58:25;102401.56;;;5.38;52.19
78667;BME280;67983;59.830;30.198;2023-04-03T10:00:55;102405.13;;;5.34;51.55
78667;BME280;67983;59.830;30.198;2023-04-03T10:03:27;102396.34;;;5.35;51.92
78667;BME280;67983;59.830;30.198;2023-04-03T10:05:54;102400.56;;;5.45;51.79
78667;BME280;67983;59.830;30.198;2023-04-03T10:08:28;102412.88;;;5.43;51.41
78667;BME280;67983;59.830;30.198;2023-04-03T10:11:07;102415.66;;;5.34;51.16
78667;BME280;67983;59.830;30.198;2023-04-03T10:13:56;102402.72;;;5.20;51.28
78667;BME280;67983;59.830;30.198;2023-04-03T10:16:35;102401.91;;;5.17;51.51
78667;BME280;67983;59.830;30.198;2023-04-03T10:19:32;102397.38;;;5.26;51.80
78667;BME280;67983;59.830;30.198;2023-04-03T10:22:04;102403.44;;;5.31;51.11
78667;BME280;67983;59.830;30.198;2023-04-03T10:24:44;102406.03;;;5.33;51.45
78667;BME280;67983;59.830;30.198;2023-04-03T10:27:17;102404.19;;;5.39;51.52
78667;BME280;67983;59.830;30.198;2023-04-03T10:29:52;102404.88;;;5.49;50.78
78667;BME280;67983;59.830;30.198;2023-04-03T10:32:48;102397.72;;;5.57;50.59
78667;BME280;67983;59.830;30.198;2023-04-03T10:35:30;102390.31;;;5.76;51.02
78667;BME280;67983;59.830;30.198;2023-04-03T10:38:09;102390.97;;;5.89;50.65
78667;BME280;67983;59.830;30.198;2023-04-03T10:40:47;102396.03;;;6.01;50.27
78667;BME280;67983;59.830;30.198;2023-04-03T10:43:26;102396.09;;;5.98;49.43
78667;BME280;67983;59.830;30.198;2023-04-03T10:46:02;102395.69;;;5.72;49.05
78667;BME280;67983;59.830;30.198;2023-04-03T10:48:52;102397.53;;;5.68;49.23
78667;BME280;67983;59.830;30.198;2023-04-03T10:51:29;102403.75;;;5.62;49.42
78667;BME280;67983;59.830;30.198;2023-04-03T10:54:05;102400.38;;;5.56;48.79
78667;BME280;67983;59.830;30.198;2023-04-03T10:56:39;102390.53;;;5.65;49.12
78667;BME280;67983;59.830;30.198;2023-04-03T10:59:16;102394.47;;;5.91;49.66
78667;BME280;67983;59.830;30.198;2023-04-03T11:01:51;102389.53;;;6.17;49.20
78667;BME280;67983;59.830;30.198;2023-04-03T11:04:23;102391.97;;;6.26;48.14
78667;BME280;67983;59.830;30.198;2023-04-03T11:07:00;102399.53;;;6.43;47.88
78667;BME280;67983;59.830;30.198;2023-04-03T11:09:31;102391.16;;;6.23;46.95
78667;BME280;67983;59.830;30.198;2023-04-03T11:12:09;102394.97;;;6.08;47.81
78667;BME280;67983;59.830;30.198;2023-04-03T11:14:41;102388.88;;;6.06;48.04
78667;BME280;67983;59.830;30.198;2023-04-03T11:17:15;102388.75;;;6.14;48.31
78667;BME280;67983;59.830;30.198;2023-04-03T11:19:54;102397.44;;;6.17;47.97
78667;BME280;67983;59.830;30.198;2023-04-03T11:22:28;102401.06;;;6.13;48.18
78667;BME280;67983;59.830;30.198;2023-04-03T11:25:03;102389.56;;;6.16;48.27
78667;BME280;67983;59.830;30.198;2023-04-03T11:27:38;102397.44;;;6.17;47.98
78667;BME280;67983;59.830;30.198;2023-04-03T11:30:16;102400.22;;;6.10;47.90
78667;BME280;67983;59.830;30.198;2023-04-03T11:33:00;102397.78;;;6.01;48.09
78667;BME280;67983;59.830;30.198;2023-04-03T11:35:36;102399.75;;;5.88;48.22
78667;BME280;67983;59.830;30.198;2023-04-03T11:38:15;102408.81;;;5.73;48.40
78667;BME280;67983;59.830;30.198;2023-04-03T11:40:45;102404.88;;;5.49;47.90
78667;BME280;67983;59.830;30.198;2023-04-03T11:43:24;102404.34;;;5.29;48.72
78667;BME280;67983;59.830;30.198;2023-04-03T11:45:54;102404.50;;;5.21;49.15
78667;BME280;67983;59.830;30.198;2023-04-03T11:48:44;102408.88;;;5.22;49.84
78667;BME280;67983;59.830;30.198;2023-04-03T11:51:39;102415.81;;;5.26;49.55
78667;BME280;67983;59.830;30.198;2023-04-03T11:54:46;102401.91;;;5.18;50.14
78667;BME280;67983;59.830;30.198;2023-04-03T11:58:01;102403.75;;;5.13;50.02
78667;BME280;67983;59.830;30.198;2023-04-03T12:00:54;102396.09;;;4.98;50.42
78667;BME280;67983;59.830;30.198;2023-04-03T12:10:14;102395.09;;;5.06;51.01
78667;BME280;67983;59.830;30.198;2023-04-03T12:16:29;102390.88;;;4.96;50.93
78667;BME280;67983;59.830;30.198;2023-04-03T12:19:32;102382.13;;;4.94;51.05
78667;BME280;67983;59.830;30.198;2023-04-03T12:22:14;102377.81;;;4.92;50.74
78667;BME280;67983;59.830;30.198;2023-04-03T12:24:43;102386.56;;;4.92;50.88
78667;BME280;67983;59.830;30.198;2023-04-03T12:27:38;102394.53;;;4.86;50.68
78667;BME280;67983;59.830;30.198;2023-04-03T12:30:16;102402.34;;;4.89;51.41
78667;BME280;67983;59.830;30.198;2023-04-03T12:32:58;102390.06;;;4.90;50.55
78667;BME280;67983;59.830;30.198;2023-04-03T12:35:30;102393.75;;;4.79;49.77
78667;BME280;67983;59.830;30.198;2023-04-03T12:41:22;102384.50;;;4.53;50.85
78667;BME280;67983;59.830;30.198;2023-04-03T12:44:22;102387.88;;;4.64;51.18
78667;BME280;67983;59.830;30.198;2023-04-03T12:47:00;102378.94;;;4.72;50.66
78667;BME280;67983;59.830;30.198;2023-04-03T12:49:38;102399.19;;;4.67;50.10
78667;BME280;67983;59.830;30.198;2023-04-03T12:52:19;102384.25;;;4.69;50.54
78667;BME280;67983;59.830;30.198;2023-04-03T12:54:50;102392.09;;;4.72;50.48
78667;BME280;67983;59.830;30.198;2023-04-03T12:57:19;102394.72;;;4.75;50.59
78667;BME280;67983;59.830;30.198;2023-04-03T12:59:47;102395.47;;;4.82;50.35
78667;BME280;67983;59.830;30.198;2023-04-03T13:02:25;102396.38;;;4.81;49.84
78667;BME280;67983;59.830;30.198;2023-04-03T13:05:06;102394.63;;;4.80;50.17
78667;BME280;67983;59.830;30.198;2023-04-03T13:07:36;102399.88;;;4.82;49.97
78667;BME280;67983;59.830;30.198;2023-04-03T13:10:15;102405.19;;;4.77;49.99
78667;BME280;67983;59.830;30.198;2023-04-03T13:12:49;102385.16;;;4.68;50.60
78667;BME280;67983;59.830;30.198;2023-04-03T13:15:19;102396.53;;;4.69;50.92
78667;BME280;67983;59.830;30.198;2023-04-03T13:17:51;102394.72;;;4.72;51.10
78667;BME280;67983;59.830;30.198;2023-04-03T13:20:23;102392.97;;;4.73;50.89
78667;BME280;67983;59.830;30.198;2023-04-03T13:22:56;102388.56;;;4.76;50.95
78667;BME280;67983;59.830;30.198;2023-04-03T13:25:28;102394.59;;;4.82;51.26
78667;BME280;67983;59.830;30.198;2023-04-03T13:28:00;102386.75;;;4.80;50.78
78667;BME280;67983;59.830;30.198;2023-04-03T13:30:31;102388.72;;;4.64;51.25